الصفحة الرئيسية
METAR-TAF:

METAR-TAF

مطار :

مطار ملبورن الدولي

ملبورن, أستراليا

دائرة عرض: 37-40-24S, خط طول: 144-50-36E, ارتفاع: 132 متر

مراقبة الطقس الحالي

تاريخ ووقت الإصدار 11 دقيقة قبل الساعة 01:00UTC
ريح 28 عقدة من الشمال تتزايد حتى 38 عقدة
درجة الحرارة 15°درجة مئوية
الرطوبة 72%
ضغط 1020 hPa
الرؤية 10 كم أو أكثر
زخات من الأمطار الخفيفة

METAR: YMML 200100Z 01028G38KT 9999 -SHRA NSC 15/10 Q1020

زمن: 11:11 (01:11 UTC)

توقعات

تاريخ ووقت الإصدار 1ساعة و 56 دقيقة قبل الساعة 23:15UTC
التوقعات صالحة من20 الساعة 00 UTC إلى 21 الساعة 06 UTC
ريح 25 عقدة من الشمال تتزايد حتى 40 عقدة
الرؤية 10 كم أو أكثر
غيوم قليلة على ارتفاع 3500 قدم
غيوم مفككة على ارتفاع 8000 قدم
زخات من الأمطار الخفيفة
من 20 الساعة 0500 UTC
ريح 15 عقدة من الشمال تتزايد حتى 25 عقدة
الرؤية 10 كم أو أكثر
غيوم قليلة على ارتفاع 2500 قدم
من 20 الساعة 0900 UTC
ريح 10 عقدة من الشمال
الرؤية 10 كم أو أكثر
غيوم قليلة على ارتفاع 4000 قدم

TAF: YMML 192315Z 2000/2106 36025G40KT 9999 -SHRA FEW035 BKN080 FM200500 35015G25KT 9999 FEW025 FM200900 35010KT 9999 FEW040

أرصاد الطقس والتوقعات من أكثر من 4000 مطار (تقارير الطقس للمطار METAR والتنبؤ بالطقس بالمطارTAF).

المحطات المتاحة هي النقط الصفراء والحمراء على الخريطة.

حرك المؤشر فوق النقطة لمعرفة اسم المحطة.

ثم انقر لمعرفة أرصاد وتوقعات الطقس.

لتغيير الخارطة: اضغط على الأزرار الخضراء مع رمز الصليب الأسود للتكبير. على الزر الأخضر مع شرطة للتصغير، أو على الأسهم الخضراء للخرائط المجاورة.


METAR-TAF: